Time;durP1;ratioP1;P1;durP2;ratioP2;P2;SDS_P1;SDS_P2;PMS_P1;PMS_P2;Temp;Humidity;BMP_temperature;BMP_pressure;BME280_temperature;BME280_humidity;BME280_pressure;Samples;Min_cycle;Max_cycle;Signal;HPM_P1;HPM_P2
2023/04/24 00:01:25;;;;;;;3.73;1.10;;;11.10;61.70;;;;;;5037386;28;46522;-71
2023/04/24 00:03:51;;;;;;;2.70;1.17;;;11.10;61.70;;;;;;5036599;28;46368;-70
2023/04/24 00:06:16;;;;;;;2.53;1.20;;;11.10;61.60;;;;;;5035742;28;46122;-71
2023/04/24 00:08:42;;;;;;;2.60;1.33;;;11.10;61.70;;;;;;5036926;28;46411;-71
2023/04/24 00:11:09;;;;;;;2.27;1.20;;;11.00;61.70;;;;;;5038723;28;46286;-71
2023/04/24 00:13:34;;;;;;;1.80;0.97;;;11.00;62.10;;;;;;5036642;28;46393;-70
2023/04/24 00:16:00;;;;;;;3.07;0.93;;;11.00;62.20;;;;;;5035284;28;45959;-70
2023/04/24 00:18:26;;;;;;;2.10;1.07;;;11.00;62.20;;;;;;5035022;28;46746;-70
2023/04/24 00:20:52;;;;;;;4.37;1.20;;;10.90;62.50;;;;;;5036608;28;46420;-70
2023/04/24 00:23:18;;;;;;;4.00;1.03;;;10.90;62.60;;;;;;5037251;28;46424;-70
2023/04/24 00:25:43;;;;;;;2.53;1.20;;;10.90;62.70;;;;;;5038608;28;45939;-70
2023/04/24 00:28:09;;;;;;;2.53;1.03;;;10.80;62.70;;;;;;5036354;28;46436;-70
2023/04/24 00:30:35;;;;;;;2.97;0.97;;;10.80;62.90;;;;;;5031572;28;45908;-71
2023/04/24 00:33:01;;;;;;;2.23;1.07;;;10.80;63.00;;;;;;5038088;28;46106;-70
2023/04/24 00:35:27;;;;;;;2.10;1.20;;;10.70;63.30;;;;;;5037946;28;46647;-71
2023/04/24 00:37:52;;;;;;;1.90;1.00;;;10.70;63.50;;;;;;5038408;28;46622;-70
2023/04/24 00:40:18;;;;;;;2.10;1.00;;;10.70;63.60;;;;;;5037523;28;46463;-70
2023/04/24 00:42:44;;;;;;;2.17;0.87;;;10.60;63.60;;;;;;5035853;28;46650;-70
2023/04/24 00:45:10;;;;;;;2.70;1.10;;;10.60;63.70;;;;;;5038998;28;46519;-71
2023/04/24 00:47:36;;;;;;;3.00;1.00;;;10.60;63.60;;;;;;5038616;28;46460;-70
2023/04/24 00:50:05;;;;;;;10.60;1.10;;;10.60;63.60;;;;;;5037578;28;46456;-70
2023/04/24 00:52:32;;;;;;;2.53;1.00;;;10.60;63.70;;;;;;5039727;28;46394;-71
2023/04/24 00:54:58;;;;;;;3.33;1.43;;;10.60;63.70;;;;;;5040201;28;46586;-71
2023/04/24 00:57:24;;;;;;;3.13;1.20;;;10.50;63.70;;;;;;5040543;28;47107;-71
2023/04/24 00:59:51;;;;;;;2.20;0.90;;;10.50;63.70;;;;;;5038219;28;46401;-71
2023/04/24 01:02:17;;;;;;;4.60;1.10;;;10.50;63.90;;;;;;5040389;28;46448;-71
2023/04/24 01:04:43;;;;;;;5.03;1.10;;;10.50;63.90;;;;;;5041782;28;46373;-70
2023/04/24 01:07:11;;;;;;;1.73;0.90;;;10.40;64.00;;;;;;5040921;28;46380;-70
2023/04/24 01:09:43;;;;;;;2.13;0.80;;;10.40;64.10;;;;;;5036393;28;46492;-69
2023/04/24 01:12:09;;;;;;;3.60;0.97;;;10.40;64.10;;;;;;5036703;28;46474;-71
2023/04/24 01:14:35;;;;;;;2.40;0.90;;;10.40;64.20;;;;;;5040274;28;46697;-70
2023/04/24 01:17:01;;;;;;;3.20;1.23;;;10.40;64.10;;;;;;5041019;28;47036;-69
2023/04/24 01:19:27;;;;;;;2.70;1.00;;;10.40;64.10;;;;;;5040684;28;46600;-70
2023/04/24 01:21:56;;;;;;;2.90;1.10;;;10.40;64.00;;;;;;5038747;28;46480;-71
2023/04/24 01:24:22;;;;;;;3.60;1.20;;;10.50;63.90;;;;;;5040570;28;46557;-71
2023/04/24 01:26:47;;;;;;;2.87;1.00;;;10.50;63.70;;;;;;5039871;28;47417;-70
2023/04/24 01:29:13;;;;;;;4.13;1.50;;;10.50;63.50;;;;;;5038326;28;45790;-70
2023/04/24 01:31:40;;;;;;;1.70;0.90;;;10.50;63.50;;;;;;5038504;28;45973;-71
2023/04/24 01:34:06;;;;;;;2.57;1.10;;;10.50;63.30;;;;;;5039695;28;46555;-70
2023/04/24 01:36:32;;;;;;;2.67;1.13;;;10.50;63.30;;;;;;5039312;28;46535;-70
2023/04/24 01:38:58;;;;;;;2.30;1.33;;;10.50;63.40;;;;;;5038947;28;46421;-70
2023/04/24 01:41:25;;;;;;;3.57;1.20;;;10.50;63.50;;;;;;5037046;28;46483;-70
2023/04/24 01:43:50;;;;;;;2.97;1.00;;;10.50;63.50;;;;;;5039110;28;46441;-70
2023/04/24 01:46:16;;;;;;;1.73;1.20;;;10.50;63.50;;;;;;5036507;28;46519;-71
2023/04/24 01:48:42;;;;;;;1.90;1.10;;;10.50;63.40;;;;;;5036591;28;46465;-70
2023/04/24 01:51:08;;;;;;;1.93;1.10;;;10.50;63.30;;;;;;5035723;28;46364;-71
2023/04/24 01:53:34;;;;;;;3.20;1.10;;;10.50;63.40;;;;;;5037169;28;46584;-70
2023/04/24 01:56:00;;;;;;;2.50;1.10;;;10.50;63.20;;;;;;5038116;28;45911;-70
2023/04/24 01:58:27;;;;;;;3.10;1.50;;;10.60;63.40;;;;;;5037642;28;46392;-71
2023/04/24 02:00:59;;;;;;;2.33;1.00;;;10.50;63.40;;;;;;5036712;28;46416;-70
2023/04/24 02:03:26;;;;;;;6.63;1.40;;;10.50;63.50;;;;;;5037252;28;46436;-71
2023/04/24 02:05:51;;;;;;;1.90;1.10;;;10.60;63.50;;;;;;5034435;28;46366;-71
2023/04/24 02:08:17;;;;;;;3.40;1.07;;;10.60;63.50;;;;;;5038368;28;46303;-71
2023/04/24 02:10:43;;;;;;;2.30;1.10;;;10.60;63.40;;;;;;5036829;28;47593;-70
2023/04/24 02:13:08;;;;;;;3.43;1.30;;;10.60;63.50;;;;;;5038005;28;46377;-70
2023/04/24 02:15:35;;;;;;;2.97;1.40;;;10.60;63.60;;;;;;5037390;28;46408;-71
2023/04/24 02:18:01;;;;;;;2.53;1.10;;;10.60;63.70;;;;;;5038100;28;46424;-70
2023/04/24 02:20:27;;;;;;;2.67;1.30;;;10.60;63.70;;;;;;5038903;28;46496;-72
2023/04/24 02:22:52;;;;;;;3.07;1.20;;;10.60;63.70;;;;;;5036048;28;46626;-71
2023/04/24 02:25:18;;;;;;;5.30;1.30;;;10.60;63.70;;;;;;5038072;28;46386;-71
2023/04/24 02:27:43;;;;;;;3.50;1.30;;;10.70;63.60;;;;;;5037356;28;46396;-70
2023/04/24 02:30:10;;;;;;;1.77;1.07;;;10.70;63.70;;;;;;5039233;28;46598;-71
2023/04/24 02:32:36;;;;;;;2.17;1.10;;;10.60;63.70;;;;;;5039422;28;46207;-71
2023/04/24 02:35:01;;;;;;;4.33;1.10;;;10.70;63.70;;;;;;5035345;28;46785;-71
2023/04/24 02:37:27;;;;;;;2.60;1.60;;;10.70;63.60;;;;;;5036361;28;46364;-71
2023/04/24 02:39:53;;;;;;;2.13;1.13;;;10.70;63.60;;;;;;5037021;28;45801;-71
2023/04/24 02:42:18;;;;;;;2.30;1.13;;;10.70;63.70;;;;;;5038611;28;46736;-71
2023/04/24 02:44:44;;;;;;;2.73;1.10;;;10.70;63.70;;;;;;5035798;28;46018;-71
2023/04/24 02:47:09;;;;;;;5.67;1.40;;;10.70;63.60;;;;;;5036293;28;46580;-71
2023/04/24 02:49:35;;;;;;;4.87;1.50;;;10.70;63.50;;;;;;5037728;28;46432;-70
2023/04/24 02:52:01;;;;;;;2.23;1.33;;;10.70;63.40;;;;;;5038326;28;46569;-71
2023/04/24 02:54:26;;;;;;;3.73;1.20;;;10.70;63.60;;;;;;5037728;28;46666;-70
2023/04/24 02:56:52;;;;;;;2.83;1.10;;;10.70;63.80;;;;;;5039966;28;46456;-71
2023/04/24 02:59:17;;;;;;;3.03;1.20;;;10.60;63.80;;;;;;5039409;28;46735;-71
2023/04/24 03:01:43;;;;;;;2.23;1.27;;;10.60;64.10;;;;;;5038757;28;46414;-71
2023/04/24 03:04:10;;;;;;;2.20;1.17;;;10.70;64.00;;;;;;5037561;28;48333;-71
2023/04/24 03:06:35;;;;;;;2.37;1.20;;;10.60;63.90;;;;;;5037063;28;46811;-71
2023/04/24 03:09:01;;;;;;;2.20;1.20;;;10.60;63.90;;;;;;5039260;28;46621;-71
2023/04/24 03:11:27;;;;;;;3.07;1.13;;;10.60;63.90;;;;;;5038060;28;46298;-71
2023/04/24 03:13:52;;;;;;;3.17;1.10;;;10.60;63.90;;;;;;5036975;28;46368;-71
2023/04/24 03:16:18;;;;;;;3.20;1.27;;;10.60;64.00;;;;;;5035453;28;46318;-71
2023/04/24 03:18:44;;;;;;;2.07;1.17;;;10.60;64.10;;;;;;5038615;28;46225;-71
2023/04/24 03:21:09;;;;;;;2.63;1.20;;;10.50;64.10;;;;;;5037071;28;46386;-71
2023/04/24 03:23:35;;;;;;;2.00;1.20;;;10.50;64.50;;;;;;5037331;28;46670;-71
2023/04/24 03:26:02;;;;;;;1.83;1.13;;;10.50;64.50;;;;;;5035483;28;46352;-71
2023/04/24 03:28:27;;;;;;;1.87;1.20;;;10.50;64.80;;;;;;5039772;28;46475;-70
2023/04/24 03:30:53;;;;;;;6.90;1.53;;;10.50;64.90;;;;;;5034666;28;46404;-71
2023/04/24 03:33:18;;;;;;;2.57;1.13;;;10.40;64.80;;;;;;5037461;28;47023;-71
2023/04/24 03:35:44;;;;;;;5.13;1.13;;;10.40;64.80;;;;;;5036581;28;45863;-71
2023/04/24 03:38:10;;;;;;;2.00;1.20;;;10.40;64.80;;;;;;5038678;28;46538;-71
2023/04/24 03:40:36;;;;;;;1.77;0.93;;;10.30;64.70;;;;;;5036553;28;46227;-71
2023/04/24 03:43:02;;;;;;;2.67;1.23;;;10.30;64.70;;;;;;5037944;28;46542;-71
2023/04/24 03:45:27;;;;;;;2.47;0.90;;;10.20;64.80;;;;;;5036868;28;45787;-70
2023/04/24 03:47:53;;;;;;;1.90;0.90;;;10.20;65.00;;;;;;5037050;28;46273;-70
2023/04/24 03:50:19;;;;;;;1.80;1.20;;;10.20;65.40;;;;;;5036048;28;46459;-70
2023/04/24 03:52:44;;;;;;;2.60;1.00;;;10.20;65.70;;;;;;5036858;28;47098;-71
2023/04/24 03:55:12;;;;;;;4.30;1.37;;;10.10;65.80;;;;;;5039488;28;46740;-71
2023/04/24 03:57:39;;;;;;;1.70;1.10;;;10.10;65.80;;;;;;5037395;28;46340;-71
2023/04/24 04:00:06;;;;;;;2.90;1.20;;;10.10;65.80;;;;;;5036324;28;46620;-71
2023/04/24 04:02:31;;;;;;;2.07;1.10;;;10.10;65.80;;;;;;5038474;28;46487;-72
2023/04/24 04:04:57;;;;;;;2.10;1.30;;;10.00;65.80;;;;;;5037160;28;46330;-71
2023/04/24 04:07:22;;;;;;;4.27;1.27;;;10.00;65.90;;;;;;5038325;28;46440;-72
2023/04/24 04:09:48;;;;;;;2.77;1.30;;;10.00;66.10;;;;;;5036881;28;46374;-70
2023/04/24 04:12:13;;;;;;;2.27;1.10;;;10.00;66.40;;;;;;5036967;28;46017;-70
2023/04/24 04:14:39;;;;;;;3.30;1.20;;;10.00;66.40;;;;;;5036296;28;46341;-71
2023/04/24 04:17:05;;;;;;;3.00;1.10;;;9.90;67.60;;;;;;5040077;28;46349;-71
2023/04/24 04:19:30;;;;;;;2.20;1.13;;;9.90;67.60;;;;;;5038620;28;46002;-71
2023/04/24 04:21:56;;;;;;;3.47;1.23;;;9.90;67.40;;;;;;5037537;28;45876;-70
2023/04/24 04:24:22;;;;;;;2.30;1.17;;;9.90;67.50;;;;;;5041684;28;46479;-70
2023/04/24 04:26:50;;;;;;;3.97;1.50;;;9.90;67.20;;;;;;5042167;28;45877;-71
2023/04/24 04:29:17;;;;;;;2.20;1.00;;;9.90;67.20;;;;;;5040719;28;46600;-72
2023/04/24 04:31:43;;;;;;;3.20;1.30;;;9.90;67.30;;;;;;5040695;28;47124;-71
2023/04/24 04:34:09;;;;;;;2.63;1.30;;;9.90;67.40;;;;;;5040981;28;46412;-71
2023/04/24 04:36:36;;;;;;;3.90;1.37;;;9.90;67.40;;;;;;5040700;28;46384;-71
2023/04/24 04:39:03;;;;;;;1.80;1.13;;;9.90;67.40;;;;;;5043915;28;46449;-71
2023/04/24 04:41:28;;;;;;;1.83;1.13;;;10.00;66.40;;;;;;5040963;28;47191;-70
2023/04/24 04:43:54;;;;;;;1.70;0.90;;;10.00;66.40;;;;;;5037866;28;46522;-70
2023/04/24 04:46:20;;;;;;;2.33;1.07;;;10.00;66.30;;;;;;5041085;28;46463;-70
2023/04/24 04:48:45;;;;;;;1.80;1.03;;;10.10;66.10;;;;;;5039490;28;46382;-71
2023/04/24 04:51:11;;;;;;;3.43;1.30;;;10.10;66.00;;;;;;5040470;28;47004;-71
2023/04/24 04:53:37;;;;;;;1.97;1.00;;;10.20;65.70;;;;;;5040417;28;46285;-71
2023/04/24 04:56:03;;;;;;;2.87;1.67;;;10.30;65.60;;;;;;5041419;28;46318;-71
2023/04/24 04:58:28;;;;;;;1.53;0.83;;;10.30;65.30;;;;;;5041899;28;46422;-72
2023/04/24 05:00:54;;;;;;;2.07;0.97;;;10.40;65.10;;;;;;5037387;28;46577;-71
2023/04/24 05:03:19;;;;;;;2.50;1.10;;;10.40;65.20;;;;;;5040181;28;46311;-71
2023/04/24 05:05:45;;;;;;;2.63;1.50;;;10.50;65.00;;;;;;5040389;28;46480;-71
2023/04/24 05:08:11;;;;;;;1.80;0.90;;;10.50;64.90;;;;;;5040316;28;46437;-72
2023/04/24 05:10:36;;;;;;;1.73;1.07;;;10.50;64.90;;;;;;5040881;28;46425;-70
2023/04/24 05:13:03;;;;;;;3.00;1.00;;;10.60;65.00;;;;;;5039853;28;46400;-71
2023/04/24 05:15:30;;;;;;;3.50;2.43;;;10.60;65.00;;;;;;5042216;28;46507;-70
2023/04/24 05:17:55;;;;;;;8.10;5.97;;;10.60;65.00;;;;;;5037577;28;46368;-70
2023/04/24 05:20:21;;;;;;;2.43;1.23;;;10.60;65.00;;;;;;5041034;28;47280;-70
2023/04/24 05:22:46;;;;;;;2.50;1.00;;;10.60;65.00;;;;;;5034779;28;45786;-70
2023/04/24 05:25:12;;;;;;;2.80;0.80;;;10.70;65.20;;;;;;5042216;28;46373;-70
2023/04/24 05:27:38;;;;;;;18.40;8.60;;;10.70;65.10;;;;;;5042049;28;46140;-71
2023/04/24 05:30:05;;;;;;;3.03;1.20;;;10.80;65.00;;;;;;5042238;28;46060;-71
2023/04/24 05:32:30;;;;;;;3.70;0.90;;;10.80;64.70;;;;;;5038880;28;46732;-71
2023/04/24 05:34:56;;;;;;;2.70;1.00;;;10.80;64.40;;;;;;5038489;28;46455;-71
2023/04/24 05:37:22;;;;;;;4.30;1.20;;;10.90;64.30;;;;;;5040115;28;46428;-70
2023/04/24 05:39:47;;;;;;;1.50;0.87;;;10.90;64.20;;;;;;5038698;28;47124;-70
2023/04/24 05:42:13;;;;;;;3.13;1.20;;;10.80;64.30;;;;;;5036750;28;46365;-72
2023/04/24 05:44:38;;;;;;;1.97;1.07;;;10.90;64.20;;;;;;5040100;28;46381;-71
2023/04/24 05:47:04;;;;;;;4.10;2.50;;;10.90;64.10;;;;;;5036731;28;46452;-71
2023/04/24 05:49:30;;;;;;;1.90;1.10;;;11.00;64.00;;;;;;5040140;28;46115;-71
2023/04/24 05:51:55;;;;;;;4.93;1.10;;;11.00;63.90;;;;;;5039457;28;45806;-70
2023/04/24 05:54:21;;;;;;;3.13;1.00;;;11.10;63.50;;;;;;5040716;28;45782;-68
2023/04/24 05:56:47;;;;;;;2.83;0.80;;;11.10;63.30;;;;;;5036280;28;45842;-68
2023/04/24 05:59:12;;;;;;;2.80;0.70;;;11.10;63.00;;;;;;5034463;28;46396;-71
2023/04/24 06:01:38;;;;;;;1.93;0.80;;;11.20;63.10;;;;;;5038899;28;46409;-69
2023/04/24 06:04:04;;;;;;;1.90;0.90;;;11.20;62.90;;;;;;5036820;28;45930;-69
2023/04/24 06:06:30;;;;;;;4.03;0.93;;;11.20;62.60;;;;;;5036035;28;46649;-70
2023/04/24 06:08:56;;;;;;;1.40;0.73;;;11.20;62.60;;;;;;5036643;28;47512;-70
2023/04/24 06:11:22;;;;;;;1.50;0.70;;;11.30;62.30;;;;;;5037289;28;46624;-70
2023/04/24 06:13:48;;;;;;;1.93;0.73;;;11.30;62.10;;;;;;5036561;28;46405;-71
2023/04/24 06:16:14;;;;;;;2.87;0.90;;;11.40;61.90;;;;;;5038426;28;46500;-71
2023/04/24 06:18:39;;;;;;;1.37;0.70;;;11.50;61.60;;;;;;5036576;28;46468;-70
2023/04/24 06:21:05;;;;;;;1.60;0.90;;;11.50;61.30;;;;;;5037403;28;46472;-71
2023/04/24 06:23:32;;;;;;;1.60;0.70;;;11.60;61.00;;;;;;5039369;28;45961;-70
2023/04/24 06:25:58;;;;;;;1.80;0.90;;;11.60;60.90;;;;;;5037892;28;46479;-69
2023/04/24 06:28:24;;;;;;;1.90;0.80;;;11.70;60.60;;;;;;5035232;28;46668;-70
2023/04/24 06:30:50;;;;;;;1.50;0.77;;;11.70;60.50;;;;;;5035034;28;46520;-70
2023/04/24 06:33:16;;;;;;;2.17;0.90;;;11.70;60.00;;;;;;5036602;28;46874;-72
2023/04/24 06:35:41;;;;;;;2.50;0.93;;;11.80;59.90;;;;;;5036320;28;46212;-71
2023/04/24 06:38:07;;;;;;;2.70;0.83;;;11.90;59.70;;;;;;5038067;28;46360;-70
2023/04/24 06:40:33;;;;;;;1.70;0.80;;;12.00;59.50;;;;;;5034949;28;46388;-70
2023/04/24 06:42:59;;;;;;;1.93;0.70;;;12.00;59.10;;;;;;5038163;28;46456;-70
2023/04/24 06:45:25;;;;;;;1.50;0.80;;;12.10;58.80;;;;;;5039678;28;46531;-69
2023/04/24 06:47:51;;;;;;;1.70;0.80;;;12.20;58.60;;;;;;5035051;28;45928;-69
2023/04/24 06:50:17;;;;;;;1.50;0.73;;;12.20;58.20;;;;;;5033970;28;46371;-69
2023/04/24 06:52:42;;;;;;;2.20;0.87;;;12.30;57.90;;;;;;5037101;28;46815;-69
2023/04/24 06:55:08;;;;;;;3.10;0.70;;;12.40;57.60;;;;;;5038459;28;46589;-69
2023/04/24 06:57:34;;;;;;;7.17;1.00;;;12.50;57.20;;;;;;5037342;28;46591;-70
2023/04/24 07:00:00;;;;;;;2.50;0.90;;;12.50;56.80;;;;;;5035399;28;46368;-70
2023/04/24 07:02:25;;;;;;;1.77;0.80;;;12.60;56.50;;;;;;5035215;28;46623;-70
2023/04/24 07:04:51;;;;;;;2.23;0.80;;;12.60;56.10;;;;;;5036377;28;46394;-69
2023/04/24 07:07:16;;;;;;;1.83;0.83;;;12.50;56.20;;;;;;5037535;28;46676;-73
2023/04/24 07:09:42;;;;;;;1.50;0.70;;;12.50;56.30;;;;;;5037223;28;46374;-72
2023/04/24 07:12:10;;;;;;;1.73;0.73;;;12.40;56.10;;;;;;5037305;28;46447;-72
2023/04/24 07:14:36;;;;;;;3.93;0.70;;;12.50;56.20;;;;;;5036459;28;46770;-72
2023/04/24 07:17:03;;;;;;;1.80;0.90;;;12.40;55.90;;;;;;5036820;28;46608;-72
2023/04/24 07:19:29;;;;;;;1.83;0.77;;;12.50;55.80;;;;;;5036872;28;45798;-71
2023/04/24 07:21:55;;;;;;;2.27;0.83;;;12.40;55.30;;;;;;5035281;28;46350;-72
2023/04/24 07:24:20;;;;;;;1.70;0.80;;;12.50;55.30;;;;;;5037290;28;46883;-70
2023/04/24 07:26:46;;;;;;;2.83;0.93;;;12.50;55.00;;;;;;5036904;28;47113;-71
2023/04/24 07:29:13;;;;;;;1.90;0.80;;;12.60;54.60;;;;;;5038316;28;46543;-74
2023/04/24 07:31:40;;;;;;;1.50;0.67;;;12.60;54.20;;;;;;5036395;28;46394;-69
2023/04/24 07:34:06;;;;;;;1.40;0.70;;;12.50;54.00;;;;;;5038780;28;46456;-75
2023/04/24 07:36:32;;;;;;;5.00;0.87;;;12.20;54.40;;;;;;5038755;28;46335;-74
2023/04/24 07:38:57;;;;;;;1.50;0.70;;;12.00;54.60;;;;;;5032086;28;46527;-75
2023/04/24 07:41:24;;;;;;;2.50;0.70;;;11.80;55.20;;;;;;5035908;28;46501;-75
2023/04/24 07:43:49;;;;;;;1.93;0.90;;;11.70;55.20;;;;;;5034665;28;45937;-75
2023/04/24 07:46:15;;;;;;;1.70;0.70;;;11.60;55.80;;;;;;5037275;28;46863;-72
2023/04/24 07:48:41;;;;;;;1.70;0.97;;;11.60;55.30;;;;;;5036008;28;46508;-73
2023/04/24 07:51:08;;;;;;;2.67;0.90;;;11.30;55.60;;;;;;5036847;28;46404;-74
2023/04/24 07:53:33;;;;;;;4.90;0.80;;;11.20;55.60;;;;;;5036615;28;46475;-73
2023/04/24 07:55:59;;;;;;;2.27;0.90;;;11.10;53.90;;;;;;5038876;28;46181;-73
2023/04/24 07:58:25;;;;;;;2.07;0.90;;;11.10;52.70;;;;;;5042336;28;46408;-73
2023/04/24 08:00:50;;;;;;;1.93;0.90;;;11.10;52.60;;;;;;5039366;28;46425;-73
2023/04/24 08:03:19;;;;;;;2.07;0.90;;;11.30;52.90;;;;;;5037418;28;46469;-73
2023/04/24 08:05:44;;;;;;;1.60;0.80;;;11.30;52.80;;;;;;5039398;28;46394;-73
2023/04/24 08:08:10;;;;;;;2.37;1.00;;;11.40;54.10;;;;;;5039732;28;46421;-73
2023/04/24 08:10:35;;;;;;;3.27;1.13;;;11.50;53.00;;;;;;5040769;28;46656;-73
2023/04/24 08:13:01;;;;;;;4.30;0.90;;;11.60;53.10;;;;;;5040278;28;46538;-73
2023/04/24 08:15:27;;;;;;;5.53;1.27;;;11.60;53.10;;;;;;5040701;28;46492;-73
2023/04/24 08:17:53;;;;;;;1.90;1.20;;;11.40;52.20;;;;;;5039603;28;45842;-73
2023/04/24 08:20:18;;;;;;;1.90;1.00;;;11.20;52.70;;;;;;5040945;28;46742;-74
2023/04/24 08:22:47;;;;;;;2.73;1.37;;;11.30;52.80;;;;;;5038785;28;46627;-74
2023/04/24 08:25:12;;;;;;;1.77;1.10;;;11.40;51.90;;;;;;5040160;28;46518;-73
2023/04/24 08:27:38;;;;;;;2.67;1.17;;;11.80;51.10;;;;;;5038104;28;45831;-74
2023/04/24 08:30:05;;;;;;;4.50;1.33;;;12.20;50.00;;;;;;5039159;28;46380;-73
2023/04/24 08:32:31;;;;;;;4.23;1.17;;;12.30;49.20;;;;;;5038497;28;46804;-72
2023/04/24 08:34:57;;;;;;;2.30;1.20;;;12.50;47.90;;;;;;5037982;28;46218;-71
2023/04/24 08:37:23;;;;;;;3.00;1.40;;;13.00;47.60;;;;;;5039646;28;46455;-70
2023/04/24 08:39:50;;;;;;;3.03;1.20;;;13.50;46.30;;;;;;5041467;28;46623;-70
2023/04/24 08:42:18;;;;;;;3.00;1.40;;;13.70;45.60;;;;;;5039300;28;46408;-70
2023/04/24 08:44:44;;;;;;;2.90;1.33;;;13.80;45.00;;;;;;5038633;28;46707;-70
2023/04/24 08:47:10;;;;;;;3.07;1.30;;;13.90;44.90;;;;;;5038645;28;46591;-70
2023/04/24 08:49:37;;;;;;;2.40;1.40;;;14.00;44.40;;;;;;5040787;28;46435;-71
2023/04/24 08:52:04;;;;;;;3.13;1.40;;;13.90;43.30;;;;;;5038716;28;46569;-71
2023/04/24 08:54:31;;;;;;;3.93;1.97;;;14.00;42.20;;;;;;5035907;28;46877;-70
2023/04/24 08:57:01;;;;;;;4.00;1.90;;;14.00;42.20;;;;;;5038624;28;46763;-70
2023/04/24 08:59:27;;;;;;;4.93;1.70;;;14.30;42.40;;;;;;5043738;28;45783;-70
2023/04/24 09:01:55;;;;;;;5.10;2.20;;;14.50;40.90;;;;;;5039327;28;46521;-70
2023/04/24 09:04:24;;;;;;;2.80;1.70;;;14.80;41.60;;;;;;5037047;28;46683;-70
2023/04/24 09:06:59;;;;;;;5.83;2.03;;;15.00;41.10;;;;;;5038246;28;46433;-70
2023/04/24 09:09:25;;;;;;;5.03;2.03;;;15.10;39.50;;;;;;5040362;28;46459;-70
2023/04/24 09:11:54;;;;;;;2.57;1.43;;;14.30;37.40;;;;;;5036743;28;46809;-70
2023/04/24 09:14:20;;;;;;;5.70;1.57;;;14.00;39.20;;;;;;5036575;28;46282;-70
2023/04/24 09:16:46;;;;;;;3.93;1.40;;;14.40;39.40;;;;;;5037470;28;46431;-70
2023/04/24 09:19:12;;;;;;;3.00;1.80;;;14.70;38.90;;;;;;5038788;28;46455;-73
2023/04/24 09:21:38;;;;;;;3.80;1.60;;;14.50;37.30;;;;;;5039540;28;46555;-72
2023/04/24 09:24:14;;;;;;;3.50;1.70;;;14.60;37.90;;;;;;5040020;28;46381;-71
2023/04/24 09:26:39;;;;;;;2.70;1.57;;;14.60;38.50;;;;;;5037208;28;46451;-71
2023/04/24 09:29:05;;;;;;;3.80;1.70;;;14.80;37.90;;;;;;5041431;28;46213;-69
2023/04/24 09:31:31;;;;;;;3.73;1.50;;;14.70;37.90;;;;;;5043404;28;46510;-73
2023/04/24 09:33:59;;;;;;;4.13;1.60;;;14.70;38.80;;;;;;5042048;28;46118;-71
2023/04/24 09:36:29;;;;;;;2.80;1.47;;;14.60;39.90;;;;;;5037360;28;46333;-72
2023/04/24 09:39:04;;;;;;;4.90;1.60;;;14.90;39.70;;;;;;5039526;28;46338;-71
2023/04/24 09:41:31;;;;;;;2.80;1.80;;;14.80;39.00;;;;;;5041005;28;45960;-75
2023/04/24 09:44:16;;;;;;;2.60;1.53;;;14.70;39.30;;;;;;5040547;28;46326;-74
2023/04/24 09:46:42;;;;;;;5.30;2.10;;;14.90;39.00;;;;;;5034776;28;46237;-73
2023/04/24 09:49:10;;;;;;;2.00;1.10;;;15.10;38.50;;;;;;5038507;28;45844;-72
2023/04/24 09:51:37;;;;;;;2.50;1.30;;;15.40;37.90;;;;;;5036774;28;46634;-71
2023/04/24 09:54:04;;;;;;;4.03;1.50;;;15.10;37.70;;;;;;5037957;28;47761;-71
2023/04/24 09:56:34;;;;;;;5.03;1.80;;;14.70;38.10;;;;;;5038262;28;46511;-70
2023/04/24 09:59:06;;;;;;;4.70;1.73;;;14.50;39.00;;;;;;5039753;28;46682;-70
2023/04/24 10:01:33;;;;;;;4.80;1.53;;;14.00;40.00;;;;;;5036932;28;46435;-71
2023/04/24 10:03:59;;;;;;;5.20;1.40;;;12.80;44.30;;;;;;5036466;28;46459;-70
2023/04/24 10:06:34;;;;;;;2.20;1.13;;;12.30;45.80;;;;;;5038909;28;46677;-69
2023/04/24 10:09:00;;;;;;;3.20;1.20;;;12.40;45.30;;;;;;5038677;28;46593;-71
2023/04/24 10:11:30;;;;;;;2.77;1.33;;;12.50;44.60;;;;;;5031863;28;46459;-72
2023/04/24 10:13:57;;;;;;;3.33;1.23;;;12.70;44.00;;;;;;5034921;28;46197;-71
2023/04/24 10:16:23;;;;;;;2.97;1.40;;;12.90;43.30;;;;;;5036905;28;46401;-72
2023/04/24 10:18:49;;;;;;;2.47;1.20;;;13.20;42.60;;;;;;5036275;28;47556;-72
2023/04/24 10:21:16;;;;;;;2.43;1.20;;;13.40;41.70;;;;;;5035864;28;45854;-72
2023/04/24 10:23:42;;;;;;;3.03;1.60;;;13.70;41.80;;;;;;5037961;28;46630;-71
2023/04/24 10:26:17;;;;;;;2.00;1.00;;;14.10;41.60;;;;;;5036789;28;46217;-71
2023/04/24 10:28:45;;;;;;;4.23;1.20;;;14.50;40.70;;;;;;5036474;28;46321;-71
2023/04/24 10:31:12;;;;;;;3.60;1.50;;;14.70;40.50;;;;;;5034337;28;46762;-70
2023/04/24 10:33:41;;;;;;;2.60;1.40;;;14.50;41.10;;;;;;5040005;28;46346;-71
2023/04/24 10:36:09;;;;;;;2.43;1.37;;;14.10;41.40;;;;;;5036004;28;46430;-72
2023/04/24 10:38:36;;;;;;;4.20;1.23;;;13.70;42.50;;;;;;5036339;28;46464;-72
2023/04/24 10:41:22;;;;;;;2.30;1.10;;;13.50;43.30;;;;;;5030303;28;46455;-71
2023/04/24 10:44:05;;;;;;;1.97;1.07;;;13.10;44.40;;;;;;5034450;28;46665;-72
2023/04/24 10:46:30;;;;;;;3.03;1.27;;;12.70;45.70;;;;;;5036073;28;46400;-72
2023/04/24 10:48:58;;;;;;;1.80;0.90;;;12.40;46.90;;;;;;5029905;28;46587;-70
2023/04/24 10:51:24;;;;;;;3.57;1.40;;;12.40;47.70;;;;;;5042414;28;45906;-73
2023/04/24 10:53:51;;;;;;;2.00;1.10;;;12.60;48.30;;;;;;5037046;28;46692;-72
2023/04/24 10:56:17;;;;;;;2.43;1.00;;;12.80;47.70;;;;;;5035107;28;46848;-73
2023/04/24 10:58:49;;;;;;;2.67;1.20;;;13.10;48.30;;;;;;5034857;28;46443;-72
2023/04/24 11:01:29;;;;;;;1.97;1.00;;;13.30;47.80;;;;;;5032825;28;46574;-73
2023/04/24 11:03:57;;;;;;;2.20;1.20;;;13.40;47.50;;;;;;5027425;28;48142;-72
2023/04/24 11:06:31;;;;;;;4.00;1.60;;;13.50;48.30;;;;;;5034715;28;46641;-69
2023/04/24 11:09:06;;;;;;;2.07;1.13;;;13.50;48.30;;;;;;5036841;28;46883;-70
2023/04/24 11:11:32;;;;;;;2.93;1.40;;;13.40;47.80;;;;;;5034605;28;46380;-72
2023/04/24 11:13:57;;;;;;;4.43;1.87;;;13.40;47.30;;;;;;5035681;28;47249;-71
2023/04/24 11:16:23;;;;;;;2.83;1.30;;;13.50;47.20;;;;;;5034778;28;46327;-70
2023/04/24 11:18:59;;;;;;;3.60;1.53;;;13.70;47.70;;;;;;5033466;28;45766;-71
2023/04/24 11:21:26;;;;;;;4.70;1.60;;;14.20;44.80;;;;;;5036398;28;46321;-72
2023/04/24 11:23:51;;;;;;;3.63;1.30;;;14.30;44.10;;;;;;5036646;28;46182;-70
2023/04/24 11:26:30;;;;;;;2.27;1.20;;;14.50;44.30;;;;;;5040794;28;46456;-70
2023/04/24 11:29:06;;;;;;;2.43;1.23;;;14.50;43.70;;;;;;5038675;28;46380;-71
2023/04/24 11:31:39;;;;;;;6.03;1.50;;;14.10;43.60;;;;;;5034691;28;46677;-72
2023/04/24 11:34:12;;;;;;;2.77;1.40;;;13.70;42.70;;;;;;5034451;28;46953;-72
2023/04/24 11:36:39;;;;;;;3.30;1.20;;;13.80;43.30;;;;;;5029784;28;46009;-72
2023/04/24 11:39:05;;;;;;;2.23;1.30;;;14.00;42.10;;;;;;5037401;28;46388;-71
2023/04/24 11:41:31;;;;;;;2.97;1.50;;;14.20;42.30;;;;;;5033499;28;46392;-71
2023/04/24 11:43:57;;;;;;;2.87;1.07;;;14.30;42.40;;;;;;5034618;28;46468;-72
2023/04/24 11:46:23;;;;;;;5.17;1.37;;;14.20;43.00;;;;;;5035407;28;46459;-71
2023/04/24 11:48:48;;;;;;;5.83;1.57;;;14.20;42.30;;;;;;5035710;28;46498;-71
2023/04/24 11:51:14;;;;;;;2.30;1.37;;;14.30;40.80;;;;;;5036346;28;46401;-71
2023/04/24 11:53:40;;;;;;;2.43;1.10;;;14.40;39.70;;;;;;5034253;28;46401;-71
2023/04/24 11:56:06;;;;;;;2.07;1.20;;;14.70;40.60;;;;;;5034837;28;46463;-71
2023/04/24 11:58:36;;;;;;;2.73;1.50;;;14.90;37.40;;;;;;5035174;28;46493;-72
2023/04/24 12:01:01;;;;;;;2.80;1.10;;;15.00;37.30;;;;;;5036069;28;46396;-72
2023/04/24 12:03:27;;;;;;;2.53;1.20;;;15.50;35.50;;;;;;5035406;28;47373;-71
2023/04/24 12:06:04;;;;;;;2.30;1.10;;;15.70;33.90;;;;;;5032417;28;45866;-72
2023/04/24 12:08:30;;;;;;;3.50;1.20;;;15.80;30.10;;;;;;5034251;28;45751;-73
2023/04/24 12:10:55;;;;;;;2.50;1.40;;;15.60;30.40;;;;;;5034240;28;46419;-73
2023/04/24 12:13:21;;;;;;;3.80;1.03;;;15.30;32.40;;;;;;5035546;28;46261;-73
2023/04/24 12:15:47;;;;;;;2.27;1.13;;;14.80;30.80;;;;;;5034489;28;46610;-72
2023/04/24 12:18:13;;;;;;;2.37;1.27;;;14.50;32.20;;;;;;5034139;28;46353;-70
2023/04/24 12:20:40;;;;;;;3.17;1.27;;;14.20;32.30;;;;;;5038073;28;45993;-72
2023/04/24 12:23:06;;;;;;;3.60;1.50;;;13.80;32.20;;;;;;5035750;28;47047;-72
2023/04/24 12:25:33;;;;;;;4.70;1.50;;;13.50;33.30;;;;;;5035693;28;46707;-72
2023/04/24 12:28:04;;;;;;;13.23;1.70;;;13.30;32.90;;;;;;5035050;28;46481;-71
2023/04/24 12:30:32;;;;;;;3.20;1.60;;;13.40;33.80;;;;;;5036080;28;46512;-71
2023/04/24 12:32:59;;;;;;;5.83;1.47;;;13.70;34.00;;;;;;5035695;28;46616;-72
2023/04/24 12:35:31;;;;;;;3.93;1.40;;;13.90;35.20;;;;;;5036028;28;45808;-70
2023/04/24 12:38:09;;;;;;;6.60;1.23;;;14.00;33.10;;;;;;5036552;28;46402;-71
2023/04/24 12:40:35;;;;;;;2.97;1.43;;;14.20;35.10;;;;;;5033884;28;46759;-68
2023/04/24 12:43:00;;;;;;;2.23;1.20;;;14.40;32.60;;;;;;5036133;28;47044;-70
2023/04/24 12:45:27;;;;;;;3.50;1.50;;;14.60;33.30;;;;;;5035761;28;46496;-70